Huvudsida
METAR-TAF:

METAR-TAF

Flygplatser :

Rafha, Saudiarabien

latitud: 29-37N, longitud: 043-29E, höjd: 449 m

Aktuellt väderrapport

Denna rapport gjordes för 31 minuter sedan, klockan 08:00 UTC
Vind 13 kt från sydväst
Temperatur 23°C
Fuktighet 22%
Tryck 1017 hPa
Sikt 10 km eller mer
Inga moln under 1 500 m eller inga cumulonimbus

METAR: OERF 220800Z 22013KT CAVOK 23/00 Q1017

Tid: 11:31 (08:31 UTC)

Väderprognos

Denna rapport gjordes för 9 timmar och 31 minuter sedan, klockan 23:00 UTC
Prognos gäller från 22 kl. 00 UTC till 23 kl. 06 UTC
Vind 8 kt från syd/sydost
Sikt 10 km eller mer
Få moln på en höjd av 4000 ft
Blir
från 22 kl. 06 UTC till 22 kl. 08 UTC
Vind 14 kt från väst/sydväst

TAF: OERF 212300Z 2200/2306 16008KT 9999 FEW040 BECMG 2206/2208 24014KT

Aktuella väderrapporter och prognoser från 4000 flygplatser (METAR- och TAF-rapporter).

De tillgängliga stationerna syns som gula och röda prickar på kartan.

För musen över prickarna för att se namnen på stationerna.

Klicka sedan för att få väderrapporter och prognoser.

För att ändra kartan: Klicka på de gröna knapparna med ett svart kors på för att zooma in; den gröna knappen med ett streck på för att zooma ut; eller på de gröna pilarna för angränsande kartor.


METAR-TAF: